Terminal Aerodrome Forecast
Issued by NWS Sterling, VA

Current Version | Previous Version | Graphics & Text | Print | Product List | Glossary On
Versions: 1 2 3 4 5 6 7 8 9 10 11 12 13 14 15 16 17 18 19 20 21 22 23 24 25 26 27 28 29 30 31 32
000
FTUS41 KLWX 292328
TAFIAD
TAF
KIAD 292328Z 3000/0106 18008KT P6SM SCT080
     FM300300 16005KT P6SM SCT090
     FM301100 18009KT P6SM BKN090
     FM301900 19011G18KT P6SM VCTS BKN050CB
     FM302300 20007KT P6SM VCTS BKN050CB
     FM010300 23005KT P6SM SCT070=

USA.gov is the U.S. government's official web portal to all federal, state and local government web resources and services.